Archer, Wyoming
Current Conditions -  °F | °C
As of 4:53 PM on Monday 22 Dec 2014 (Local Time) from KCYS Reporting Station
Light Snow Light Snow  
Wind Chill: -10°   Ceiling: 6500
Heat Index: -3°   Visibility: 8mi
Dew Point: -7°   Wind: 16mph
Humidity: 72%   Direction: 350°N
Pressure: 29.71"   Gusts: 35mph
Location:  41.4091°N, 104.861°W
Report Text: KCYS 222353Z 35014G30KT 8SM -SN FEW028 SCT040 BKN065 M03/M07 A2971 RMK AO2 PK WND 33031/2334 SNB45 SLP090 P0000 60000 T10281072 10000 21028 53016
Loading
Personal Weather Stations






























Interactive Weather Map New forecast layout! Learn more

10-Day Weather Forecast

Advertisements
Track Severe Weather on mobile